Aérodrome :
LOGIN :

S'inscrire | Disclaimer

   EN    FR    IT 

 










Légende :    VFR   VFR Marginal   IFR   IFR Intensif   IFR Très Intensif
Visi : 
Plafond : 
>= 8 km
>= 3000ft
5 à 8 km
1000 à 3000 ft
1500m à 5 km
500 à 1000 ft
800 à 1500m
200 à 500 ft
< 800m
< 200 ft
Symboles :   Orages  Brouillard  Fortes neiges  Fortes précipitations  Vent > 20 kt
SIGMETs :   Divers  Orages  Givrage  Turbulence  Onde Orograph.  Cendres Volcan.







- Altitude de l'aérodrome : 32 ft
- Code IATA : LKZ


EGUL - RAF Lakenheath

DERNIER METAR :
  • 270756Z 00000KT 9999 -RA BKN025 OVC035 08/05 A2982 RMK AO2A RAB0657 SLP101 P0001 T00780054 $

METARs EXPIRÉS :
  • 270738Z AUTO 14004KT 9999 -RA SCT026 SCT035 08/05 A2982 RMK AO2 RAB0657 SLP101 $
  • 270732Z 14003KT 9999 -RA FEW017 BKN026 BKN035 08/05 A2982 RMK AO2A RAB0657 CIG 026V035 BKN026 V FEW CIG 021 RWY24 SLP101 $
  • 270704Z AUTO 15004KT 9999 -RA FEW024 08/04 A2983 RMK AO2 RAB0657 SLP105 $
  • 270656Z AUTO 16005KT 9999 CLR 08/04 A2982 RMK AO2 SLP101 T00770035 $
  • 270556Z AUTO 00000KT 9999 CLR 07/03 A2983 RMK AO2 SLP105 T00680031 10077 20051 57015 $

TAF TAF EGUL
Valide du 27 à 04h jusqu'au 28 à 10h UTC


270407Z 2704/2810 24009KT 9999 SKC QNH2987INS
BECMG 2705/2706 15009KT 9000 -SHRA BKN020 QNH2979INS
TEMPO 2706/2713 BKN010
BECMG 2712/2713 12009KT 6000 -RA BKN015 610802 QNH2969INS
BECMG 2715/2716 11009KT 8000 -SHRA BKN020 610802 QNH2966INS
TEMPO 2716/2801 BKN010
BECMG 2800/2801 10009KT 8000 -SHRA BKN015 QNH2965INS TX10/2715Z TN05/2704Z
Pas de NOTAMs connus pour ce terrain.



MET'MAP, la Météo Aéronautique d'un coup d'oeil ! - Copyright ORBIFLY Décembre 2007 - Disclaimer

ORBIFLY MET'MAP TEAM :

Programmation & Développement : Alexandra Zaïnal
Conception & Développement : Baudouin d'Aumeries
Co-Programmation & Développement : Marc-Olivier Méhu
Soutien technique & logistique : Manuel Goepfert

Contact : metmap@orbifly.com




SOURCES & CREDITS :

   NOAA